createdAt,value
2017-10-06T00:00:43.169Z,0
2017-10-06T00:01:43.165Z,0
2017-10-06T00:02:43.124Z,0
2017-10-06T00:03:43.102Z,0
2017-10-06T00:04:43.067Z,0
2017-10-06T00:05:43.077Z,0
2017-10-06T00:06:43.026Z,0
2017-10-06T00:07:42.693Z,0
2017-10-06T00:08:42.978Z,0
2017-10-06T00:09:42.959Z,0
2017-10-06T00:10:42.929Z,0
2017-10-06T00:11:42.907Z,0
2017-10-06T00:12:42.888Z,0
2017-10-06T00:13:42.866Z,0
2017-10-06T00:14:42.841Z,0
2017-10-06T00:15:42.815Z,0
2017-10-06T00:16:42.796Z,0
2017-10-06T00:17:42.761Z,0
2017-10-06T00:18:42.750Z,0
2017-10-06T00:19:42.719Z,0
2017-10-06T00:20:42.699Z,0
2017-10-06T00:21:42.675Z,0
2017-10-06T00:22:42.649Z,0
2017-10-06T00:23:42.624Z,0
2017-10-06T00:24:42.602Z,0
2017-10-06T00:25:42.577Z,0
2017-10-06T00:26:42.558Z,0
2017-10-06T00:27:42.526Z,0
2017-10-06T00:28:42.501Z,0
2017-10-06T00:29:42.487Z,0
2017-10-06T00:30:42.461Z,0
2017-10-06T00:31:42.435Z,0
2017-10-06T00:32:42.410Z,0
2017-10-06T00:33:42.082Z,0
2017-10-06T00:34:42.358Z,0
2017-10-06T00:35:42.348Z,0
2017-10-06T00:36:42.318Z,0
2017-10-06T00:37:42.298Z,0
2017-10-06T00:38:42.277Z,0
2017-10-06T00:39:42.247Z,0
2017-10-06T00:40:42.229Z,0
2017-10-06T00:41:42.202Z,0
2017-10-06T00:42:42.189Z,0
2017-10-06T00:43:42.170Z,0
2017-10-06T00:44:42.134Z,0
2017-10-06T00:45:42.108Z,0
2017-10-06T00:46:42.085Z,0
2017-10-06T00:47:42.065Z,0
2017-10-06T00:48:42.032Z,0
2017-10-06T00:49:42.015Z,0
2017-10-06T00:50:41.996Z,0
2017-10-06T00:51:41.968Z,0
2017-10-06T00:52:41.938Z,0
2017-10-06T00:53:41.919Z,0
2017-10-06T00:54:41.896Z,0
2017-10-06T00:55:41.868Z,0
2017-10-06T00:56:41.848Z,0
2017-10-06T00:57:41.814Z,0
2017-10-06T00:58:41.793Z,0
2017-10-06T00:59:41.774Z,0
2017-10-06T01:00:41.750Z,0
2017-10-06T01:01:41.734Z,0
2017-10-06T01:02:41.703Z,0
2017-10-06T01:03:41.677Z,0
2017-10-06T01:04:41.652Z,0
2017-10-06T01:05:41.628Z,0
2017-10-06T01:06:41.627Z,0
2017-10-06T01:07:41.580Z,0
2017-10-06T01:08:41.585Z,0
2017-10-06T01:09:41.537Z,0
2017-10-06T01:10:41.526Z,0
2017-10-06T01:11:41.499Z,0
2017-10-06T01:12:41.470Z,0
2017-10-06T01:13:41.458Z,0
2017-10-06T01:14:41.432Z,0
2017-10-06T01:15:41.403Z,0
2017-10-06T01:16:41.381Z,0
2017-10-06T01:17:41.344Z,0
2017-10-06T01:18:41.320Z,0
2017-10-06T01:19:41.301Z,0
2017-10-06T01:20:41.280Z,0
2017-10-06T01:21:41.257Z,0
2017-10-06T01:22:41.239Z,0
2017-10-06T01:23:41.209Z,0
2017-10-06T01:24:40.892Z,0
2017-10-06T01:25:41.170Z,0
2017-10-06T01:26:41.149Z,0
2017-10-06T01:27:41.123Z,0
2017-10-06T01:28:41.098Z,0
2017-10-06T01:29:41.119Z,0
2017-10-06T01:30:40.746Z,0
2017-10-06T01:31:41.048Z,0
2017-10-06T01:32:41.023Z,0
2017-10-06T01:33:40.999Z,0
2017-10-06T01:34:40.974Z,0
2017-10-06T01:35:40.953Z,0
2017-10-06T01:36:40.928Z,0
2017-10-06T01:37:40.900Z,0
2017-10-06T01:38:40.877Z,0
2017-10-06T01:39:40.856Z,0
2017-10-06T01:40:40.863Z,0
2017-10-06T01:41:40.805Z,0
2017-10-06T01:42:40.777Z,0
2017-10-06T01:43:40.768Z,0
2017-10-06T01:44:40.744Z,0
2017-10-06T01:45:40.705Z,0
2017-10-06T01:46:40.689Z,0
2017-10-06T01:47:40.664Z,0
2017-10-06T01:48:40.643Z,0
2017-10-06T01:49:40.618Z,0
2017-10-06T01:50:40.590Z,0
2017-10-06T01:51:40.577Z,0
2017-10-06T01:52:40.554Z,0
2017-10-06T01:53:40.518Z,0
2017-10-06T01:54:40.502Z,0
2017-10-06T01:55:40.479Z,0
2017-10-06T01:56:40.452Z,0
2017-10-06T01:57:40.432Z,0
2017-10-06T01:58:40.402Z,0
2017-10-06T01:59:40.390Z,0
2017-10-06T02:00:40.368Z,0
2017-10-06T02:01:40.335Z,0
2017-10-06T02:02:40.006Z,0
2017-10-06T02:03:40.295Z,0
2017-10-06T02:04:39.960Z,0
2017-10-06T02:05:40.238Z,0
2017-10-06T02:06:40.218Z,0
2017-10-06T02:07:40.198Z,0
2017-10-06T02:08:40.176Z,0
2017-10-06T02:09:40.142Z,0
2017-10-06T02:10:40.130Z,0
2017-10-06T02:11:40.107Z,0
2017-10-06T02:12:40.082Z,0
2017-10-06T02:13:40.064Z,0
2017-10-06T02:14:40.045Z,0
2017-10-06T02:15:40.024Z,0
2017-10-06T02:16:39.981Z,0
2017-10-06T02:17:39.963Z,0
2017-10-06T02:18:39.933Z,0
2017-10-06T02:19:39.918Z,0
2017-10-06T02:20:39.898Z,0
2017-10-06T02:21:39.865Z,0
2017-10-06T02:22:39.850Z,0
2017-10-06T02:23:39.818Z,0
2017-10-06T02:24:39.803Z,0
2017-10-06T02:25:39.778Z,0
2017-10-06T02:26:39.745Z,0
2017-10-06T02:27:39.724Z,0
2017-10-06T02:28:39.711Z,0
2017-10-06T02:29:39.679Z,0
2017-10-06T02:30:39.637Z,0
2017-10-06T02:31:39.613Z,0
2017-10-06T02:32:39.585Z,0
2017-10-06T02:33:39.560Z,0
2017-10-06T02:34:39.557Z,0
2017-10-06T02:35:39.522Z,0
2017-10-06T02:36:39.506Z,0
2017-10-06T02:37:39.481Z,0
2017-10-06T02:38:39.447Z,0
2017-10-06T02:39:39.422Z,0
2017-10-06T02:40:39.405Z,0
2017-10-06T02:41:39.373Z,0
2017-10-06T02:42:39.363Z,0
2017-10-06T02:43:39.346Z,0
2017-10-06T02:44:39.312Z,0
2017-10-06T02:45:39.291Z,0
2017-10-06T02:46:39.258Z,0
2017-10-06T02:47:39.271Z,0
2017-10-06T02:48:39.217Z,0
2017-10-06T02:49:39.192Z,0
2017-10-06T02:50:39.168Z,0
2017-10-06T02:51:39.143Z,0
2017-10-06T02:52:39.129Z,0
2017-10-06T02:53:39.103Z,0
2017-10-06T02:54:39.074Z,0
2017-10-06T02:55:39.055Z,0
2017-10-06T02:56:39.036Z,0
2017-10-06T02:57:38.998Z,0
2017-10-06T02:58:38.979Z,0
2017-10-06T02:59:38.962Z,0
2017-10-06T03:00:38.932Z,0
2017-10-06T03:01:38.918Z,0
2017-10-06T03:02:38.886Z,0
2017-10-06T03:03:38.862Z,0
2017-10-06T03:04:38.856Z,0
2017-10-06T03:05:38.820Z,0
2017-10-06T03:06:38.795Z,0
2017-10-06T03:07:38.776Z,0
2017-10-06T03:08:38.751Z,0
2017-10-06T03:09:38.729Z,0
2017-10-06T03:10:38.708Z,0
2017-10-06T03:11:38.679Z,0
2017-10-06T03:12:38.655Z,0
2017-10-06T03:13:38.627Z,0
2017-10-06T03:14:38.605Z,0
2017-10-06T03:15:38.585Z,0
2017-10-06T03:16:38.559Z,0
2017-10-06T03:17:38.632Z,0
2017-10-06T03:18:38.509Z,0
2017-10-06T03:19:38.493Z,0
2017-10-06T03:20:38.458Z,0
2017-10-06T03:21:38.447Z,0
2017-10-06T03:22:38.412Z,0
2017-10-06T03:23:38.392Z,0
2017-10-06T03:24:38.373Z,0
2017-10-06T03:25:38.366Z,0
2017-10-06T03:26:38.318Z,0
2017-10-06T03:27:38.306Z,0
2017-10-06T03:28:38.281Z,0
2017-10-06T03:29:38.250Z,0
2017-10-06T03:30:38.229Z,0
2017-10-06T03:31:38.241Z,0
2017-10-06T03:32:38.173Z,0
2017-10-06T03:33:38.162Z,0
2017-10-06T03:34:38.135Z,0
2017-10-06T03:35:38.114Z,0
2017-10-06T03:36:38.087Z,0
2017-10-06T03:37:38.069Z,0
2017-10-06T03:38:38.042Z,0
2017-10-06T03:39:38.021Z,0
2017-10-06T03:40:37.994Z,0
2017-10-06T03:41:37.979Z,0
2017-10-06T03:42:37.640Z,0
2017-10-06T03:43:37.921Z,0
2017-10-06T03:44:37.893Z,0
2017-10-06T03:45:37.878Z,0
2017-10-06T03:46:37.856Z,0
2017-10-06T03:47:37.837Z,0
2017-10-06T03:48:37.908Z,0
2017-10-06T03:49:37.779Z,0
2017-10-06T03:50:37.754Z,0
2017-10-06T03:51:37.756Z,0
2017-10-06T03:52:37.710Z,0
2017-10-06T03:53:37.685Z,0
2017-10-06T03:54:37.672Z,0
2017-10-06T03:55:37.666Z,0
2017-10-06T03:56:37.634Z,0
2017-10-06T03:57:37.613Z,0
2017-10-06T03:58:37.593Z,0
2017-10-06T03:59:37.577Z,0
2017-10-06T04:00:37.228Z,0
2017-10-06T04:01:37.516Z,0
2017-10-06T04:02:37.491Z,0
2017-10-06T04:03:37.499Z,0
2017-10-06T04:04:37.437Z,0
2017-10-06T04:05:37.112Z,0
2017-10-06T04:06:37.382Z,0
2017-10-06T04:07:37.358Z,0
2017-10-06T04:08:37.342Z,0
2017-10-06T04:09:37.025Z,0
2017-10-06T04:10:37.284Z,0
2017-10-06T04:11:37.262Z,0
2017-10-06T04:12:37.246Z,0
2017-10-06T04:13:37.220Z,0
2017-10-06T04:14:37.198Z,0
2017-10-06T04:15:37.179Z,0
2017-10-06T04:16:37.144Z,0
2017-10-06T04:17:37.129Z,0
2017-10-06T04:18:37.097Z,0
2017-10-06T04:19:37.078Z,0
2017-10-06T04:20:37.047Z,0
2017-10-06T04:21:37.036Z,0
2017-10-06T04:22:36.994Z,0
2017-10-06T04:23:36.974Z,0
2017-10-06T04:24:36.957Z,0
2017-10-06T04:25:36.935Z,0
2017-10-06T04:26:36.907Z,0
2017-10-06T04:27:36.879Z,0
2017-10-06T04:28:36.859Z,0
2017-10-06T04:29:36.838Z,0
2017-10-06T04:30:36.839Z,0
2017-10-06T04:31:36.784Z,0
2017-10-06T04:32:36.777Z,0
2017-10-06T04:33:36.749Z,0
2017-10-06T04:34:36.714Z,0
2017-10-06T04:35:36.698Z,0
2017-10-06T04:36:36.666Z,0
2017-10-06T04:37:36.647Z,0
2017-10-06T04:38:36.632Z,0
2017-10-06T04:39:36.602Z,0
2017-10-06T04:40:36.585Z,0
2017-10-06T04:41:36.544Z,0
2017-10-06T04:42:36.526Z,0
2017-10-06T04:43:36.501Z,0
2017-10-06T04:44:36.473Z,0
2017-10-06T04:45:36.453Z,0
2017-10-06T04:46:36.430Z,0
2017-10-06T04:47:36.406Z,0
2017-10-06T04:48:36.383Z,0
2017-10-06T04:49:36.361Z,0
2017-10-06T04:50:36.342Z,0
2017-10-06T04:51:36.322Z,0
2017-10-06T04:52:36.282Z,0
2017-10-06T04:53:36.268Z,0
2017-10-06T04:54:36.239Z,0
2017-10-06T04:55:36.214Z,0
2017-10-06T04:56:36.196Z,0
2017-10-06T04:57:36.166Z,0
2017-10-06T04:58:36.141Z,0
2017-10-06T04:59:36.128Z,0
2017-10-06T05:00:35.788Z,0
2017-10-06T05:01:36.080Z,0
2017-10-06T05:02:36.052Z,0
2017-10-06T05:03:36.025Z,0
2017-10-06T05:04:35.993Z,0
2017-10-06T05:05:35.988Z,0
2017-10-06T05:06:35.949Z,0
2017-10-06T05:07:35.645Z,4
2017-10-06T05:08:35.907Z,4
2017-10-06T05:09:35.879Z,0
2017-10-06T05:10:35.856Z,4
2017-10-06T05:11:35.829Z,4
2017-10-06T05:12:35.804Z,8
2017-10-06T05:13:35.783Z,8
2017-10-06T05:14:35.760Z,8
2017-10-06T05:15:35.740Z,12
2017-10-06T05:16:35.713Z,12
2017-10-06T05:17:35.693Z,16
2017-10-06T05:18:35.673Z,12
2017-10-06T05:19:35.633Z,16
2017-10-06T05:20:35.620Z,20
2017-10-06T05:21:35.597Z,28
2017-10-06T05:22:35.573Z,32
2017-10-06T05:23:35.550Z,36
2017-10-06T05:24:35.531Z,40
2017-10-06T05:25:35.498Z,40
2017-10-06T05:26:35.473Z,48
2017-10-06T05:27:35.466Z,56
2017-10-06T05:28:35.420Z,68
2017-10-06T05:29:35.411Z,72
2017-10-06T05:30:35.381Z,80
2017-10-06T05:31:35.361Z,84
2017-10-06T05:32:35.332Z,88
2017-10-06T05:33:35.310Z,104
2017-10-06T05:34:35.284Z,124
2017-10-06T05:35:35.262Z,136
2017-10-06T05:36:35.241Z,160
2017-10-06T05:37:35.241Z,188
2017-10-06T05:38:35.188Z,228
2017-10-06T05:39:35.165Z,252
2017-10-06T05:40:35.145Z,272
2017-10-06T05:41:35.117Z,272
2017-10-06T05:42:35.095Z,288
2017-10-06T05:43:35.066Z,320
2017-10-06T05:44:35.054Z,324
2017-10-06T05:45:35.023Z,372
2017-10-06T05:46:34.999Z,424
2017-10-06T05:47:35.009Z,428
2017-10-06T05:48:34.948Z,444
2017-10-06T05:49:34.928Z,504
2017-10-06T05:50:34.903Z,552
2017-10-06T05:51:34.878Z,560
2017-10-06T05:52:34.868Z,592
2017-10-06T05:53:34.832Z,600
2017-10-06T05:54:34.811Z,540
2017-10-06T05:55:34.482Z,520
2017-10-06T05:56:34.766Z,596
2017-10-06T05:57:34.737Z,688
2017-10-06T05:58:34.714Z,760
2017-10-06T05:59:34.704Z,912
2017-10-06T06:00:34.675Z,1096
2017-10-06T06:01:34.640Z,1180
2017-10-06T06:02:34.623Z,1180
2017-10-06T06:03:34.607Z,1256
2017-10-06T06:04:34.570Z,1348
2017-10-06T06:05:34.572Z,1356
2017-10-06T06:06:34.540Z,1364
2017-10-06T06:07:34.505Z,1436
2017-10-06T06:08:34.474Z,1556
2017-10-06T06:09:34.463Z,1748
2017-10-06T06:10:34.429Z,1796
2017-10-06T06:11:34.430Z,1956
2017-10-06T06:12:34.391Z,2208
2017-10-06T06:13:34.358Z,2644
2017-10-06T06:14:34.346Z,2924
2017-10-06T06:15:34.313Z,3384
2017-10-06T06:16:34.298Z,4524
2017-10-06T06:17:34.269Z,4984
2017-10-06T06:18:34.245Z,5328
2017-10-06T06:19:34.230Z,4716
2017-10-06T06:20:34.199Z,4804
2017-10-06T06:21:34.210Z,5316
2017-10-06T06:22:34.149Z,3928
2017-10-06T06:23:34.120Z,3624
2017-10-06T06:24:34.118Z,3116
2017-10-06T06:25:34.077Z,2860
2017-10-06T06:26:34.054Z,2432
2017-10-06T06:27:34.038Z,2332
2017-10-06T06:28:34.030Z,2548
2017-10-06T06:29:33.996Z,2576
2017-10-06T06:30:33.967Z,2936
2017-10-06T06:31:33.946Z,3400
2017-10-06T06:32:33.912Z,4256
2017-10-06T06:33:33.892Z,4756
2017-10-06T06:34:33.884Z,5044
2017-10-06T06:35:33.847Z,5572
2017-10-06T06:36:33.828Z,5264
2017-10-06T06:37:33.804Z,5196
2017-10-06T06:38:33.787Z,5848
2017-10-06T06:39:33.760Z,5136
2017-10-06T06:40:33.733Z,7604
2017-10-06T06:41:33.711Z,7516
2017-10-06T06:42:33.689Z,4868
2017-10-06T06:43:33.666Z,4016
2017-10-06T06:44:33.644Z,3068
2017-10-06T06:45:33.637Z,2920
2017-10-06T06:46:33.594Z,2832
2017-10-06T06:47:33.579Z,3096
2017-10-06T06:48:33.555Z,3016
2017-10-06T06:49:33.537Z,3292
2017-10-06T06:50:33.506Z,3916
2017-10-06T06:51:33.491Z,4228
2017-10-06T06:52:33.466Z,4148
2017-10-06T06:53:33.442Z,4604
2017-10-06T06:54:33.418Z,5132
2017-10-06T06:55:33.084Z,5472
2017-10-06T06:56:33.383Z,6040
2017-10-06T06:57:33.350Z,6000
2017-10-06T06:58:33.327Z,5780
2017-10-06T06:59:33.312Z,5848
2017-10-06T07:00:33.278Z,6492
2017-10-06T07:01:33.259Z,12144
2017-10-06T07:02:33.250Z,6140
2017-10-06T07:03:33.225Z,5424
2017-10-06T07:04:33.196Z,4656
2017-10-06T07:05:33.170Z,4816
2017-10-06T07:06:33.151Z,4316
2017-10-06T07:07:33.128Z,4052
2017-10-06T07:08:33.101Z,3956
2017-10-06T07:09:33.076Z,4076
2017-10-06T07:10:33.062Z,4464
2017-10-06T07:11:33.035Z,4312
2017-10-06T07:12:33.012Z,4640
2017-10-06T07:13:32.987Z,5408
2017-10-06T07:14:32.970Z,6076
2017-10-06T07:15:32.950Z,6784
2017-10-06T07:16:32.921Z,7428
2017-10-06T07:17:32.896Z,7536
2017-10-06T07:18:32.869Z,7264
2017-10-06T07:19:32.849Z,5728
2017-10-06T07:20:32.826Z,4532
2017-10-06T07:21:32.810Z,3440
2017-10-06T07:22:32.814Z,3456
2017-10-06T07:23:32.765Z,3696
2017-10-06T07:24:32.743Z,4076
2017-10-06T07:25:32.713Z,4424
2017-10-06T07:26:32.698Z,4528
2017-10-06T07:27:32.667Z,4632
2017-10-06T07:28:32.648Z,4736
2017-10-06T07:29:32.622Z,4872
2017-10-06T07:30:32.600Z,5140
2017-10-06T07:31:32.571Z,5564
2017-10-06T07:32:32.554Z,5784
2017-10-06T07:33:32.225Z,5816
2017-10-06T07:34:32.514Z,5684
2017-10-06T07:35:32.190Z,5516
2017-10-06T07:36:32.465Z,5300
2017-10-06T07:37:32.438Z,5476
2017-10-06T07:38:32.422Z,5928
2017-10-06T07:39:32.397Z,6536
2017-10-06T07:40:32.371Z,7260
2017-10-06T07:41:32.355Z,7948
2017-10-06T07:42:32.333Z,8460
2017-10-06T07:43:31.992Z,8316
2017-10-06T07:44:32.279Z,8360
2017-10-06T07:45:32.259Z,8940
2017-10-06T07:46:31.933Z,9912
2017-10-06T07:47:32.218Z,10528
2017-10-06T07:48:32.204Z,9156
2017-10-06T07:49:32.162Z,8112
2017-10-06T07:50:32.159Z,8236
2017-10-06T07:51:31.816Z,8716
2017-10-06T07:52:32.096Z,9488
2017-10-06T07:53:32.114Z,10540
2017-10-06T07:54:32.057Z,11904
2017-10-06T07:55:32.051Z,11216
2017-10-06T07:56:32.015Z,9300
2017-10-06T07:57:31.987Z,7492
2017-10-06T07:58:31.661Z,6184
2017-10-06T07:59:31.629Z,5224
2017-10-06T08:00:31.915Z,4884
2017-10-06T08:01:31.915Z,5236
2017-10-06T08:02:31.865Z,6064
2017-10-06T08:03:31.862Z,6196
2017-10-06T08:04:31.519Z,5376
2017-10-06T08:05:31.802Z,6232
2017-10-06T08:06:31.778Z,6544
2017-10-06T08:07:31.804Z,8160
2017-10-06T08:08:31.737Z,6984
2017-10-06T08:09:31.713Z,5712
2017-10-06T08:10:31.394Z,4776
2017-10-06T08:11:31.671Z,3692
2017-10-06T08:12:31.655Z,3216
2017-10-06T08:13:31.626Z,3372
2017-10-06T08:14:31.612Z,3224
2017-10-06T08:15:31.573Z,2600
2017-10-06T08:16:31.562Z,2616
2017-10-06T08:17:31.531Z,2412
2017-10-06T08:18:31.200Z,2852
2017-10-06T08:19:31.490Z,3560
2017-10-06T08:20:31.473Z,3356
2017-10-06T08:21:31.432Z,3784
2017-10-06T08:22:31.105Z,5944
2017-10-06T08:23:31.095Z,9608
2017-10-06T08:24:31.371Z,12960
2017-10-06T08:25:31.355Z,14332
2017-10-06T08:26:31.324Z,13128
2017-10-06T08:27:31.300Z,12396
2017-10-06T08:28:30.970Z,12476
2017-10-06T08:29:31.254Z,13080
2017-10-06T08:30:31.227Z,13288
2017-10-06T08:31:31.210Z,12860
2017-10-06T08:32:30.886Z,12000
2017-10-06T08:33:31.170Z,11536
2017-10-06T08:34:31.130Z,11740
2017-10-06T08:35:31.123Z,11572
2017-10-06T08:36:30.794Z,10572
2017-10-06T08:37:31.077Z,10192
2017-10-06T08:38:31.055Z,10196
2017-10-06T08:39:31.025Z,9860
2017-10-06T08:40:31.009Z,9272
2017-10-06T08:41:30.986Z,8528
2017-10-06T08:42:30.958Z,7932
2017-10-06T08:43:30.933Z,7584
2017-10-06T08:44:30.915Z,7304
2017-10-06T08:45:30.590Z,6968
2017-10-06T08:46:30.871Z,6808
2017-10-06T08:47:30.838Z,6624
2017-10-06T08:48:30.821Z,6236
2017-10-06T08:49:30.814Z,6316
2017-10-06T08:50:30.770Z,6740
2017-10-06T08:51:30.753Z,7364
2017-10-06T08:52:30.738Z,7904
2017-10-06T08:53:30.712Z,8712
2017-10-06T08:54:30.695Z,9432
2017-10-06T08:55:30.369Z,10288
2017-10-06T08:56:30.349Z,10616
2017-10-06T08:57:30.632Z,11432
2017-10-06T08:58:30.603Z,12292
2017-10-06T08:59:30.580Z,12852
2017-10-06T09:00:30.562Z,12904
2017-10-06T09:01:30.543Z,13076
2017-10-06T09:02:30.204Z,11596
2017-10-06T09:03:30.494Z,13280
2017-10-06T09:04:30.468Z,13420
2017-10-06T09:05:30.447Z,12416
2017-10-06T09:06:30.416Z,11552
2017-10-06T09:07:30.389Z,10292
2017-10-06T09:08:30.379Z,9340
2017-10-06T09:09:30.346Z,8824
2017-10-06T09:10:30.326Z,8252
2017-10-06T09:11:30.299Z,7568
2017-10-06T09:12:30.288Z,6800
2017-10-06T09:13:30.264Z,5992
2017-10-06T09:14:30.245Z,5580
2017-10-06T09:15:30.214Z,5364
2017-10-06T09:16:29.883Z,5296
2017-10-06T09:17:30.173Z,5324
2017-10-06T09:18:30.150Z,5268
2017-10-06T09:19:29.817Z,5068
2017-10-06T09:20:29.799Z,4748
2017-10-06T09:21:30.074Z,4556
2017-10-06T09:22:30.051Z,4568
2017-10-06T09:23:30.050Z,4644
2017-10-06T09:24:30.012Z,4636
2017-10-06T09:25:29.992Z,4600
2017-10-06T09:26:29.965Z,4592
2017-10-06T09:27:29.938Z,4852
2017-10-06T09:28:29.924Z,5332
2017-10-06T09:29:29.901Z,5772
2017-10-06T09:30:29.888Z,6104
2017-10-06T09:31:29.560Z,6340
2017-10-06T09:32:29.827Z,6400
2017-10-06T09:33:29.805Z,6204
2017-10-06T09:34:29.479Z,5716
2017-10-06T09:35:29.753Z,5016
2017-10-06T09:36:29.739Z,4488
2017-10-06T09:37:29.708Z,4268
2017-10-06T09:38:29.374Z,4268
2017-10-06T09:39:29.671Z,4284
2017-10-06T09:40:29.648Z,4380
2017-10-06T09:41:29.625Z,4712
2017-10-06T09:42:29.291Z,5204
2017-10-06T09:43:29.585Z,5620
2017-10-06T09:44:29.559Z,5880
2017-10-06T09:45:29.216Z,6096
2017-10-06T09:46:29.509Z,6472
2017-10-06T09:47:29.493Z,7296
2017-10-06T09:48:29.463Z,8464
2017-10-06T09:49:29.438Z,9372
2017-10-06T09:50:29.409Z,9760
2017-10-06T09:51:29.396Z,10004
2017-10-06T09:52:29.361Z,9644
2017-10-06T09:53:29.038Z,8620
2017-10-06T09:54:29.318Z,8040
2017-10-06T09:55:29.308Z,6660
2017-10-06T09:56:29.278Z,7328
2017-10-06T09:57:29.253Z,8780
2017-10-06T09:58:29.228Z,8800
2017-10-06T09:59:28.913Z,9204
2017-10-06T10:00:29.185Z,9516
2017-10-06T10:01:29.160Z,9696
2017-10-06T10:02:28.826Z,10044
2017-10-06T10:03:29.114Z,9960
2017-10-06T10:04:29.088Z,9248
2017-10-06T10:05:29.078Z,8596
2017-10-06T10:06:29.044Z,8904
2017-10-06T10:07:29.028Z,9648
2017-10-06T10:08:29.008Z,10348
2017-10-06T10:09:28.989Z,10312
2017-10-06T10:10:28.953Z,10172
2017-10-06T10:11:28.930Z,11016
2017-10-06T10:12:28.913Z,11492
2017-10-06T10:13:28.900Z,10944
2017-10-06T10:14:28.899Z,9600
2017-10-06T10:15:28.846Z,8880
2017-10-06T10:16:28.816Z,9276
2017-10-06T10:17:28.802Z,9672
2017-10-06T10:18:28.774Z,9540
2017-10-06T10:19:28.756Z,8880
2017-10-06T10:20:28.735Z,8084
2017-10-06T10:21:28.710Z,7892
2017-10-06T10:22:28.682Z,8684
2017-10-06T10:23:28.678Z,9944
2017-10-06T10:24:28.641Z,11144
2017-10-06T10:25:28.634Z,12156
2017-10-06T10:26:28.609Z,13040
2017-10-06T10:27:28.566Z,13892
2017-10-06T10:28:28.541Z,14616
2017-10-06T10:29:28.533Z,15472
2017-10-06T10:30:28.507Z,16360
2017-10-06T10:31:28.474Z,16928
2017-10-06T10:32:28.462Z,16832
2017-10-06T10:33:28.436Z,16152
2017-10-06T10:34:28.408Z,15568
2017-10-06T10:35:28.395Z,14920
2017-10-06T10:36:28.368Z,14576
2017-10-06T10:37:28.346Z,14648
2017-10-06T10:38:28.313Z,14528
2017-10-06T10:39:28.296Z,14264
2017-10-06T10:40:28.285Z,14024
2017-10-06T10:41:28.262Z,14028
2017-10-06T10:42:28.230Z,14008
2017-10-06T10:43:28.261Z,13552
2017-10-06T10:44:28.190Z,13556
2017-10-06T10:45:28.175Z,13280
2017-10-06T10:46:28.181Z,12936
2017-10-06T10:47:28.129Z,13284
2017-10-06T10:48:28.107Z,13924
2017-10-06T10:49:28.091Z,14320
2017-10-06T10:50:28.055Z,12956
2017-10-06T10:51:28.043Z,10656
2017-10-06T10:52:28.018Z,10000
2017-10-06T10:53:27.994Z,9640
2017-10-06T10:54:27.984Z,8896
2017-10-06T10:55:27.996Z,8172
2017-10-06T10:56:27.927Z,8404
2017-10-06T10:57:27.900Z,9600
2017-10-06T10:58:27.881Z,11728
2017-10-06T10:59:27.864Z,13928
2017-10-06T11:00:27.833Z,16992
2017-10-06T11:01:27.827Z,18144
2017-10-06T11:02:27.796Z,18400
2017-10-06T11:03:27.777Z,20576
2017-10-06T11:04:27.751Z,18080
2017-10-06T11:05:27.752Z,15736
2017-10-06T11:06:27.699Z,15132
2017-10-06T11:07:27.726Z,13224
2017-10-06T11:08:27.668Z,15056
2017-10-06T11:09:27.643Z,17216
2017-10-06T11:10:27.631Z,18560
2017-10-06T11:11:27.601Z,19072
2017-10-06T11:12:27.582Z,16308
2017-10-06T11:13:27.563Z,18464
2017-10-06T11:14:27.536Z,21280
2017-10-06T11:15:27.512Z,19264
2017-10-06T11:16:27.493Z,13564
2017-10-06T11:17:27.476Z,15996
2017-10-06T11:18:27.453Z,13256
2017-10-06T11:19:27.429Z,14760
2017-10-06T11:20:27.406Z,16024
2017-10-06T11:21:27.379Z,19328
2017-10-06T11:22:27.353Z,16212
2017-10-06T11:23:27.342Z,11400
2017-10-06T11:24:27.315Z,14468
2017-10-06T11:25:27.290Z,14988
2017-10-06T11:26:27.278Z,14632
2017-10-06T11:27:27.265Z,18176
2017-10-06T11:28:27.224Z,21088
2017-10-06T11:29:27.209Z,23680
2017-10-06T11:30:27.187Z,25248
2017-10-06T11:31:27.161Z,23680
2017-10-06T11:32:27.156Z,22048
2017-10-06T11:33:27.146Z,20320
2017-10-06T11:34:27.115Z,19488
2017-10-06T11:35:27.083Z,18656
2017-10-06T11:36:27.067Z,16800
2017-10-06T11:37:26.728Z,13412
2017-10-06T11:38:27.023Z,10816
2017-10-06T11:39:26.995Z,9996
2017-10-06T11:40:26.978Z,8060
2017-10-06T11:41:26.997Z,6396
2017-10-06T11:42:26.929Z,6320
2017-10-06T11:43:26.912Z,6248
2017-10-06T11:44:26.889Z,5368
2017-10-06T11:45:26.553Z,5208
2017-10-06T11:46:26.842Z,6480
2017-10-06T11:47:26.830Z,7556
2017-10-06T11:48:26.794Z,6648
2017-10-06T11:49:26.471Z,5260
2017-10-06T11:50:26.766Z,5080
2017-10-06T11:51:26.740Z,6448
2017-10-06T11:52:26.715Z,8456
2017-10-06T11:53:26.689Z,9056
2017-10-06T11:54:26.675Z,10976
2017-10-06T11:55:26.647Z,13172
2017-10-06T11:56:26.623Z,12420
2017-10-06T11:57:26.601Z,9928
2017-10-06T11:58:26.589Z,11780
2017-10-06T11:59:25.945Z,13020
2017-10-06T12:00:26.550Z,10800
2017-10-06T12:01:26.519Z,9960
2017-10-06T12:02:26.511Z,8292
2017-10-06T12:03:26.470Z,6968
2017-10-06T12:04:26.146Z,8124
2017-10-06T12:05:26.427Z,7712
2017-10-06T12:06:26.406Z,6820
2017-10-06T12:07:26.387Z,5848
2017-10-06T12:08:26.364Z,4896
2017-10-06T12:09:26.346Z,4832
2017-10-06T12:10:26.317Z,5404
2017-10-06T12:11:26.298Z,5544
2017-10-06T12:12:26.265Z,8052
2017-10-06T12:13:26.250Z,11644
2017-10-06T12:14:26.220Z,13612
2017-10-06T12:15:26.211Z,12964
2017-10-06T12:16:26.196Z,13796
2017-10-06T12:17:26.157Z,14228
2017-10-06T12:18:26.139Z,15500
2017-10-06T12:19:25.804Z,15228
2017-10-06T12:20:26.103Z,15404
2017-10-06T12:21:26.069Z,13540
2017-10-06T12:22:26.055Z,11284
2017-10-06T12:23:26.024Z,10760
2017-10-06T12:24:26.014Z,11440
2017-10-06T12:25:25.973Z,10720
2017-10-06T12:26:25.965Z,9184
2017-10-06T12:27:25.941Z,9660
2017-10-06T12:28:25.949Z,7912
2017-10-06T12:29:25.895Z,6720
2017-10-06T12:30:25.876Z,6188
2017-10-06T12:31:25.858Z,6628
2017-10-06T12:32:25.847Z,6364
2017-10-06T12:33:25.809Z,6768
2017-10-06T12:34:25.786Z,9888
2017-10-06T12:35:25.771Z,10076
2017-10-06T12:36:25.748Z,8416
2017-10-06T12:37:25.729Z,7700
2017-10-06T12:38:25.705Z,6992
2017-10-06T12:39:25.686Z,6204
2017-10-06T12:40:25.653Z,5304
2017-10-06T12:41:25.639Z,4272
2017-10-06T12:42:25.621Z,4216
2017-10-06T12:43:25.592Z,3928
2017-10-06T12:44:25.578Z,3904
2017-10-06T12:45:25.558Z,5136
2017-10-06T12:46:25.522Z,7832
2017-10-06T12:47:25.205Z,11592
2017-10-06T12:48:25.175Z,13628
2017-10-06T12:49:25.454Z,12488
2017-10-06T12:50:25.433Z,12456
2017-10-06T12:51:25.412Z,12544
2017-10-06T12:52:25.390Z,13152
2017-10-06T12:53:25.369Z,13188
2017-10-06T12:54:25.350Z,11916
2017-10-06T12:55:25.325Z,11460
2017-10-06T12:56:25.309Z,10880
2017-10-06T12:57:25.288Z,7320
2017-10-06T12:58:25.261Z,3648
2017-10-06T12:59:25.242Z,2084
2017-10-06T13:00:25.228Z,1184
2017-10-06T13:01:25.198Z,1532
2017-10-06T13:02:25.173Z,2196
2017-10-06T13:03:25.157Z,2856
2017-10-06T13:04:25.139Z,3424
2017-10-06T13:05:25.129Z,3548
2017-10-06T13:06:25.089Z,3468
2017-10-06T13:07:25.072Z,3444
2017-10-06T13:08:25.045Z,3436
2017-10-06T13:09:25.023Z,3520
2017-10-06T13:10:24.996Z,3536
2017-10-06T13:11:24.973Z,3576
2017-10-06T13:12:24.950Z,3436
2017-10-06T13:13:24.933Z,3396
2017-10-06T13:14:24.912Z,3816
2017-10-06T13:15:24.896Z,3876
2017-10-06T13:16:24.874Z,3992
2017-10-06T13:17:24.853Z,3720
2017-10-06T13:18:24.825Z,3292
2017-10-06T13:19:24.794Z,3148
2017-10-06T13:20:24.785Z,3396
2017-10-06T13:21:24.751Z,3088
2017-10-06T13:22:24.727Z,3280
2017-10-06T13:23:24.703Z,2936
2017-10-06T13:24:24.371Z,3052
2017-10-06T13:25:24.667Z,3008
2017-10-06T13:26:24.638Z,3256
2017-10-06T13:27:24.610Z,2932
2017-10-06T13:28:24.588Z,3212
2017-10-06T13:29:24.250Z,3188
2017-10-06T13:30:24.554Z,3164
2017-10-06T13:31:24.518Z,3140
2017-10-06T13:32:24.497Z,3116
2017-10-06T13:33:24.475Z,3108
2017-10-06T13:34:24.142Z,3100
2017-10-06T13:35:24.431Z,3076
2017-10-06T13:36:24.420Z,3076
2017-10-06T13:37:24.394Z,3068
2017-10-06T13:38:24.407Z,3052
2017-10-06T13:39:24.330Z,3044
2017-10-06T13:40:24.321Z,3036
2017-10-06T13:41:24.277Z,3004
2017-10-06T13:42:24.276Z,2988
2017-10-06T13:43:24.254Z,2992
2017-10-06T13:44:24.214Z,3000
2017-10-06T13:45:24.206Z,3036
2017-10-06T13:46:24.191Z,3032
2017-10-06T13:47:24.160Z,3052